createdAt,value
2019-06-27T00:00:09.109Z,22.06
2019-06-27T00:02:37.944Z,21.99
2019-06-27T00:05:07.643Z,21.93
2019-06-27T00:07:36.315Z,21.88
2019-06-27T00:10:08.022Z,21.83
2019-06-27T00:12:36.690Z,21.74
2019-06-27T00:15:06.196Z,21.63
2019-06-27T00:17:34.899Z,21.59
2019-06-27T00:20:04.387Z,21.51
2019-06-27T00:22:33.090Z,21.47
2019-06-27T00:25:01.962Z,21.38
2019-06-27T00:27:30.840Z,21.21
2019-06-27T00:29:59.573Z,21.23
2019-06-27T00:32:28.424Z,21.17
2019-06-27T00:35:00.248Z,21.10
2019-06-27T00:37:28.808Z,20.93
2019-06-27T00:39:57.615Z,20.72
2019-06-27T00:42:27.821Z,20.73
2019-06-27T00:44:59.485Z,20.54
2019-06-27T00:47:28.164Z,20.52
2019-06-27T00:49:56.869Z,20.46
2019-06-27T00:52:28.497Z,20.29
2019-06-27T00:55:00.589Z,20.19
2019-06-27T00:57:29.339Z,20.12
2019-06-27T00:59:58.079Z,20.09
2019-06-27T01:02:26.806Z,19.93
2019-06-27T01:04:55.684Z,19.97
2019-06-27T01:07:24.798Z,19.89
2019-06-27T01:09:53.469Z,19.76
2019-06-27T01:12:22.421Z,19.67
2019-06-27T01:14:51.136Z,19.58
2019-06-27T01:17:19.811Z,19.47
2019-06-27T01:19:48.830Z,19.44
2019-06-27T01:22:17.504Z,19.36
2019-06-27T01:24:46.200Z,19.30
2019-06-27T01:27:29.157Z,19.13
2019-06-27T01:29:45.340Z,19.09
2019-06-27T01:32:14.177Z,18.93
2019-06-27T01:34:42.921Z,18.91
2019-06-27T01:37:11.595Z,18.85
2019-06-27T01:39:40.263Z,18.82
2019-06-27T01:42:09.008Z,18.76
2019-06-27T01:44:45.041Z,18.61
2019-06-27T01:47:13.727Z,18.60
2019-06-27T01:49:42.659Z,18.56
2019-06-27T01:52:11.334Z,18.44
2019-06-27T01:54:39.930Z,18.42
2019-06-27T01:57:08.612Z,18.32
2019-06-27T01:59:37.571Z,18.19
2019-06-27T02:02:06.719Z,18.12
2019-06-27T02:04:35.702Z,18.13
2019-06-27T02:07:04.498Z,18.04
2019-06-27T02:09:33.634Z,18.07
2019-06-27T02:12:02.429Z,18.00
2019-06-27T02:14:31.247Z,18.00
2019-06-27T02:16:59.960Z,18.02
2019-06-27T02:19:28.675Z,18.00
2019-06-27T02:22:00.254Z,17.87
2019-06-27T02:24:29.374Z,17.83
2019-06-27T02:26:58.360Z,17.69
2019-06-27T02:29:28.520Z,17.64
2019-06-27T02:31:59.999Z,17.54
2019-06-27T02:34:28.753Z,17.45
2019-06-27T02:36:57.496Z,17.56
2019-06-27T02:39:27.571Z,17.49
2019-06-27T02:41:56.490Z,17.42
2019-06-27T02:44:25.326Z,17.44
2019-06-27T02:46:55.683Z,17.40
2019-06-27T02:49:26.650Z,17.34
2019-06-27T02:51:55.447Z,17.16
2019-06-27T02:54:24.885Z,17.15
2019-06-27T02:56:53.547Z,17.10
2019-06-27T02:59:22.323Z,16.95
2019-06-27T03:01:51.128Z,16.89
2019-06-27T03:04:19.841Z,16.80
2019-06-27T03:06:49.062Z,16.82
2019-06-27T03:09:17.786Z,16.83
2019-06-27T03:11:46.444Z,16.71
2019-06-27T03:14:15.236Z,16.64
2019-06-27T03:16:43.888Z,16.59
2019-06-27T03:19:12.555Z,16.51
2019-06-27T03:21:41.481Z,16.41
2019-06-27T03:24:10.128Z,16.37
2019-06-27T03:26:38.783Z,16.35
2019-06-27T03:29:07.430Z,16.30
2019-06-27T03:31:36.225Z,16.37
2019-06-27T03:34:04.929Z,16.27
2019-06-27T03:36:33.732Z,16.20
2019-06-27T03:39:02.549Z,16.16
2019-06-27T03:41:31.364Z,16.07
2019-06-27T03:44:00.072Z,16.12
2019-06-27T03:46:28.727Z,16.08
2019-06-27T03:48:57.702Z,16.07
2019-06-27T03:51:27.951Z,16.11
2019-06-27T03:53:56.692Z,16.10
2019-06-27T03:56:25.318Z,16.06
2019-06-27T03:59:11.694Z,16.13
2019-06-27T04:01:27.679Z,16.22
2019-06-27T04:03:59.380Z,16.21
2019-06-27T04:06:28.193Z,16.09
2019-06-27T04:08:58.359Z,15.92
2019-06-27T04:11:28.677Z,15.88
2019-06-27T04:13:57.427Z,16.00
2019-06-27T04:16:27.562Z,16.01
2019-06-27T04:18:57.663Z,16.00
2019-06-27T04:21:26.488Z,16.06
2019-06-27T04:23:56.952Z,16.09
2019-06-27T04:26:28.391Z,16.18
2019-06-27T04:28:58.514Z,16.27
2019-06-27T04:31:29.965Z,16.20
2019-06-27T04:33:59.027Z,16.09
2019-06-27T04:36:27.724Z,16.12
2019-06-27T04:38:59.215Z,16.19
2019-06-27T04:41:28.025Z,16.14
2019-06-27T04:43:56.714Z,16.05
2019-06-27T04:46:25.576Z,16.13
2019-06-27T04:48:54.391Z,16.02
2019-06-27T04:51:23.195Z,15.98
2019-06-27T04:53:51.948Z,15.91
2019-06-27T04:56:20.690Z,15.84
2019-06-27T04:58:49.873Z,15.84
2019-06-27T05:01:18.553Z,15.83
2019-06-27T05:03:47.407Z,15.88
2019-06-27T05:06:16.255Z,15.75
2019-06-27T05:08:44.829Z,15.70
2019-06-27T05:11:13.499Z,15.79
2019-06-27T05:13:42.432Z,15.74
2019-06-27T05:16:11.074Z,15.71
2019-06-27T05:18:39.765Z,15.66
2019-06-27T05:21:08.472Z,15.64
2019-06-27T05:23:37.233Z,15.63
2019-06-27T05:26:06.036Z,15.66
2019-06-27T05:28:34.858Z,15.66
2019-06-27T05:31:03.511Z,15.71
2019-06-27T05:33:32.160Z,15.73
2019-06-27T05:36:02.571Z,15.89
2019-06-27T05:38:31.650Z,15.97
2019-06-27T05:41:00.302Z,16.13
2019-06-27T05:43:29.347Z,16.19
2019-06-27T05:45:57.993Z,16.40
2019-06-27T05:48:26.797Z,16.62
2019-06-27T05:50:55.449Z,17.02
2019-06-27T05:53:24.233Z,17.45
2019-06-27T05:55:53.269Z,17.73
2019-06-27T05:58:21.972Z,17.56
2019-06-27T06:00:50.695Z,17.42
2019-06-27T06:03:19.426Z,17.37
2019-06-27T06:05:48.140Z,17.08
2019-06-27T06:08:16.786Z,16.81
2019-06-27T06:10:45.434Z,16.72
2019-06-27T06:13:14.093Z,16.76
2019-06-27T06:15:42.722Z,16.82
2019-06-27T06:18:11.350Z,16.90
2019-06-27T06:20:40.203Z,16.89
2019-06-27T06:23:09.058Z,16.92
2019-06-27T06:25:37.806Z,16.78
2019-06-27T06:28:06.444Z,16.84
2019-06-27T06:30:44.487Z,16.94
2019-06-27T06:33:05.813Z,16.86
2019-06-27T06:35:34.577Z,16.92
2019-06-27T06:38:03.227Z,16.86
2019-06-27T06:40:31.960Z,17.01
2019-06-27T06:43:00.878Z,16.97
2019-06-27T06:45:29.606Z,17.08
2019-06-27T06:47:58.515Z,16.92
2019-06-27T06:50:30.442Z,16.92
2019-06-27T06:52:59.216Z,17.15
2019-06-27T06:55:27.933Z,17.25
2019-06-27T06:57:56.653Z,17.09
2019-06-27T07:00:26.785Z,17.33
2019-06-27T07:02:55.651Z,17.14
2019-06-27T07:05:26.262Z,17.31
2019-06-27T07:07:54.946Z,17.34
2019-06-27T07:10:23.724Z,17.47
2019-06-27T07:12:53.063Z,17.46
2019-06-27T07:15:21.770Z,17.62
2019-06-27T07:17:50.547Z,17.56
2019-06-27T07:20:19.811Z,17.67
2019-06-27T07:22:48.549Z,17.59
2019-06-27T07:25:17.182Z,17.70
2019-06-27T07:27:45.859Z,17.81
2019-06-27T07:30:15.187Z,17.87
2019-06-27T07:32:43.907Z,17.99
2019-06-27T07:35:12.623Z,18.07
2019-06-27T07:37:41.329Z,17.99
2019-06-27T07:40:11.574Z,18.00
2019-06-27T07:42:40.610Z,18.13
2019-06-27T07:45:10.096Z,18.00
2019-06-27T07:47:38.806Z,18.18
2019-06-27T07:50:11.582Z,18.15
2019-06-27T07:52:40.232Z,18.14
2019-06-27T07:55:09.297Z,18.28
2019-06-27T07:57:37.965Z,18.39
2019-06-27T08:00:09.047Z,18.49
2019-06-27T08:02:37.694Z,18.56
2019-06-27T08:05:07.296Z,18.57
2019-06-27T08:07:36.117Z,18.56
2019-06-27T08:10:05.443Z,18.72
2019-06-27T08:12:34.178Z,18.76
2019-06-27T08:15:02.898Z,18.98
2019-06-27T08:17:31.625Z,18.99
2019-06-27T08:20:00.582Z,19.18
2019-06-27T08:22:29.160Z,19.05
2019-06-27T08:24:57.815Z,19.13
2019-06-27T08:27:29.287Z,19.06
2019-06-27T08:29:57.866Z,19.23
2019-06-27T08:32:29.303Z,19.28
2019-06-27T08:34:57.935Z,19.21
2019-06-27T08:37:26.519Z,19.36
2019-06-27T08:39:56.890Z,19.45
2019-06-27T08:42:25.570Z,19.17
2019-06-27T08:44:54.223Z,19.54
2019-06-27T08:47:23.155Z,19.40
2019-06-27T08:49:51.986Z,19.62
2019-06-27T08:52:20.743Z,19.61
2019-06-27T08:54:49.384Z,19.71
2019-06-27T08:57:18.162Z,19.79
2019-06-27T08:59:46.810Z,19.88
2019-06-27T09:02:15.489Z,20.01
2019-06-27T09:04:44.220Z,19.90
2019-06-27T09:07:13.033Z,20.06
2019-06-27T09:09:41.684Z,20.31
2019-06-27T09:12:10.384Z,20.28
2019-06-27T09:14:39.084Z,20.47
2019-06-27T09:17:07.799Z,20.67
2019-06-27T09:19:36.451Z,20.90
2019-06-27T09:22:05.228Z,20.97
2019-06-27T09:24:34.046Z,20.84
2019-06-27T09:27:02.759Z,20.59
2019-06-27T09:29:31.483Z,20.71
2019-06-27T09:32:00.158Z,20.88
2019-06-27T09:34:28.901Z,20.69
2019-06-27T09:36:57.716Z,20.52
2019-06-27T09:39:29.293Z,20.78
2019-06-27T09:41:57.941Z,21.11
2019-06-27T09:44:26.614Z,21.27
2019-06-27T09:46:55.352Z,21.18
2019-06-27T09:49:26.006Z,21.05
2019-06-27T09:51:54.939Z,21.33
2019-06-27T09:54:23.754Z,21.52
2019-06-27T09:56:52.441Z,21.50
2019-06-27T09:59:21.595Z,21.62
2019-06-27T10:01:50.546Z,21.67
2019-06-27T10:04:19.225Z,21.56
2019-06-27T10:06:47.890Z,21.63
2019-06-27T10:09:16.549Z,21.60
2019-06-27T10:11:45.463Z,21.63
2019-06-27T10:14:14.171Z,21.64
2019-06-27T10:16:42.773Z,21.96
2019-06-27T10:19:11.444Z,21.98
2019-06-27T10:21:40.120Z,22.19
2019-06-27T10:24:08.786Z,21.72
2019-06-27T10:26:37.458Z,21.82
2019-06-27T10:29:06.164Z,21.76
2019-06-27T10:31:34.878Z,21.82
2019-06-27T10:34:03.790Z,22.02
2019-06-27T10:36:32.539Z,22.35
2019-06-27T10:39:01.799Z,22.43
2019-06-27T10:41:30.555Z,22.69
2019-06-27T10:44:02.881Z,22.68
2019-06-27T10:46:31.481Z,22.68
2019-06-27T10:49:00.161Z,22.94
2019-06-27T10:51:29.029Z,23.10
2019-06-27T10:53:58.105Z,22.92
2019-06-27T10:56:26.846Z,23.12
2019-06-27T10:58:58.603Z,23.01
2019-06-27T11:01:27.244Z,23.34
2019-06-27T11:03:55.939Z,23.21
2019-06-27T11:06:27.412Z,23.39
2019-06-27T11:08:57.535Z,23.53
2019-06-27T11:11:28.043Z,23.45
2019-06-27T11:13:59.260Z,23.33
2019-06-27T11:16:30.405Z,23.54
2019-06-27T11:18:59.185Z,23.47
2019-06-27T11:21:27.840Z,23.73
2019-06-27T11:23:58.982Z,23.67
2019-06-27T11:26:27.660Z,23.70
2019-06-27T11:28:59.572Z,23.70
2019-06-27T11:31:28.599Z,23.63
2019-06-27T11:33:58.515Z,23.82
2019-06-27T11:36:30.209Z,24.04
2019-06-27T11:38:59.205Z,24.15
2019-06-27T11:41:27.881Z,24.21
2019-06-27T11:43:56.562Z,24.22
2019-06-27T11:46:25.309Z,24.11
2019-06-27T11:48:55.765Z,24.35
2019-06-27T11:51:26.527Z,24.34
2019-06-27T11:53:56.900Z,24.54
2019-06-27T11:56:25.419Z,24.45
2019-06-27T11:58:54.096Z,24.44
2019-06-27T12:01:23.145Z,24.43
2019-06-27T12:03:51.795Z,24.70
2019-06-27T12:06:20.724Z,24.87
2019-06-27T12:08:49.399Z,25.23
2019-06-27T12:11:18.165Z,24.66
2019-06-27T12:13:46.878Z,24.69
2019-06-27T12:16:15.532Z,24.78
2019-06-27T12:18:44.119Z,24.80
2019-06-27T12:21:12.960Z,24.66
2019-06-27T12:23:41.728Z,24.80
2019-06-27T12:26:10.403Z,25.01
2019-06-27T12:28:39.183Z,25.05
2019-06-27T12:31:19.974Z,25.23
2019-06-27T12:33:38.214Z,25.21
2019-06-27T12:36:07.204Z,25.45
2019-06-27T12:38:35.857Z,25.87
2019-06-27T12:41:04.545Z,25.60
2019-06-27T12:43:33.465Z,25.32
2019-06-27T12:46:02.174Z,25.23
2019-06-27T12:48:30.906Z,25.32
2019-06-27T12:50:59.447Z,25.27
2019-06-27T12:53:28.149Z,25.19
2019-06-27T12:55:56.935Z,25.01
2019-06-27T12:58:28.280Z,25.14
2019-06-27T13:00:58.506Z,25.58
2019-06-27T13:03:29.929Z,25.61
2019-06-27T13:05:58.691Z,25.63
2019-06-27T13:08:27.508Z,25.63
2019-06-27T13:10:57.767Z,25.71
2019-06-27T13:13:30.568Z,25.89
2019-06-27T13:15:59.603Z,25.94
2019-06-27T13:18:28.499Z,25.91
2019-06-27T13:21:00.113Z,25.86
2019-06-27T13:23:28.772Z,25.68
2019-06-27T13:25:57.453Z,25.80
2019-06-27T13:28:27.525Z,26.13
2019-06-27T13:30:57.633Z,26.06
2019-06-27T13:33:27.736Z,26.26
2019-06-27T13:35:59.169Z,26.37
2019-06-27T13:38:28.098Z,26.26
2019-06-27T13:40:56.925Z,25.76
2019-06-27T13:43:28.749Z,25.98
2019-06-27T13:45:57.375Z,26.03
2019-06-27T13:48:26.320Z,26.45
2019-06-27T13:50:57.780Z,26.15
2019-06-27T13:53:25.857Z,26.28
2019-06-27T13:55:57.000Z,26.35
2019-06-27T13:58:29.010Z,26.54
2019-06-27T14:00:57.777Z,26.52
2019-06-27T14:03:29.675Z,26.43
2019-06-27T14:05:58.791Z,26.58
2019-06-27T14:08:27.464Z,26.64
2019-06-27T14:10:58.091Z,26.62
2019-06-27T14:13:26.744Z,26.73
2019-06-27T14:15:55.396Z,27.09
2019-06-27T14:18:25.390Z,27.48
2019-06-27T14:20:55.375Z,27.17
2019-06-27T14:23:24.359Z,27.21
2019-06-27T14:25:53.011Z,27.29
2019-06-27T14:28:21.661Z,27.64
2019-06-27T14:30:50.304Z,27.89
2019-06-27T14:33:18.978Z,27.41
2019-06-27T14:35:47.644Z,27.29
2019-06-27T14:38:16.299Z,27.32
2019-06-27T14:40:45.146Z,27.92
2019-06-27T14:43:13.864Z,28.38
2019-06-27T14:45:42.666Z,29.29
2019-06-27T14:48:11.329Z,29.96
2019-06-27T14:50:40.098Z,30.46
2019-06-27T14:53:09.013Z,31.06
2019-06-27T14:55:37.668Z,30.63
2019-06-27T14:58:06.359Z,31.52
2019-06-27T15:00:35.045Z,30.94
2019-06-27T15:03:03.687Z,31.31
2019-06-27T15:05:33.712Z,31.60
2019-06-27T15:08:02.473Z,31.40
2019-06-27T15:10:31.143Z,30.89
2019-06-27T15:12:59.799Z,30.51
2019-06-27T15:15:28.487Z,31.03
2019-06-27T15:18:00.180Z,30.11
2019-06-27T15:20:28.868Z,30.90
2019-06-27T15:22:57.521Z,31.60
2019-06-27T15:25:28.503Z,31.78
2019-06-27T15:27:57.397Z,32.37
2019-06-27T15:30:27.567Z,31.68
2019-06-27T15:32:57.724Z,30.99
2019-06-27T15:35:33.450Z,31.22
2019-06-27T15:38:00.290Z,30.97
2019-06-27T15:40:28.910Z,31.21
2019-06-27T15:42:57.626Z,30.67
2019-06-27T15:45:27.713Z,30.06
2019-06-27T15:47:59.210Z,29.56
2019-06-27T15:50:27.881Z,28.50
2019-06-27T15:52:56.590Z,27.96
2019-06-27T15:55:25.411Z,27.48
2019-06-27T15:57:54.062Z,27.08
2019-06-27T16:00:22.853Z,26.89
2019-06-27T16:02:51.559Z,26.69
2019-06-27T16:05:20.252Z,26.25
2019-06-27T16:07:48.938Z,26.19
2019-06-27T16:10:17.795Z,26.20
2019-06-27T16:12:47.639Z,26.30
2019-06-27T16:15:16.592Z,26.39
2019-06-27T16:17:45.269Z,26.33
2019-06-27T16:20:14.509Z,26.06
2019-06-27T16:22:43.713Z,26.22
2019-06-27T16:25:12.739Z,26.12
2019-06-27T16:27:42.181Z,26.23
2019-06-27T16:30:12.073Z,26.02
2019-06-27T16:32:40.812Z,25.76
2019-06-27T16:35:09.656Z,25.68
2019-06-27T16:37:38.287Z,25.52
2019-06-27T16:40:07.732Z,25.47
2019-06-27T16:42:37.496Z,25.42
2019-06-27T16:45:07.889Z,25.39
2019-06-27T16:47:36.820Z,25.30
2019-06-27T16:50:05.710Z,25.20
2019-06-27T16:52:34.670Z,25.22
2019-06-27T16:55:03.327Z,25.17
2019-06-27T16:57:31.995Z,25.21
2019-06-27T17:00:02.981Z,25.11
2019-06-27T17:02:31.721Z,25.05
2019-06-27T17:05:01.169Z,24.97
2019-06-27T17:07:30.604Z,24.99
2019-06-27T17:09:59.367Z,24.89
2019-06-27T17:12:28.121Z,24.75
2019-06-27T17:14:56.984Z,24.83
2019-06-27T17:17:28.650Z,24.79
2019-06-27T17:19:58.156Z,24.81
2019-06-27T17:22:27.326Z,24.67
2019-06-27T17:24:56.032Z,24.53
2019-06-27T17:27:27.938Z,24.36
2019-06-27T17:29:56.653Z,24.41
2019-06-27T17:32:25.365Z,24.39
2019-06-27T17:34:55.856Z,24.45
2019-06-27T17:37:27.627Z,24.22
2019-06-27T17:39:56.543Z,24.22
2019-06-27T17:42:27.003Z,24.27
2019-06-27T17:44:58.598Z,24.15
2019-06-27T17:47:30.589Z,24.12
2019-06-27T17:49:59.240Z,23.96
2019-06-27T17:52:31.311Z,23.97
2019-06-27T17:54:58.507Z,23.85
2019-06-27T17:57:30.000Z,23.72
2019-06-27T17:59:58.815Z,23.76
2019-06-27T18:02:27.631Z,23.66
2019-06-27T18:04:57.891Z,23.70
2019-06-27T18:07:29.669Z,23.62
2019-06-27T18:09:58.394Z,23.60
2019-06-27T18:12:28.621Z,23.50
2019-06-27T18:15:00.051Z,23.29
2019-06-27T18:17:33.421Z,23.32
2019-06-27T18:19:59.450Z,23.23
2019-06-27T18:22:28.269Z,23.20
2019-06-27T18:24:58.403Z,23.08
2019-06-27T18:27:28.078Z,23.00
2019-06-27T18:29:57.003Z,22.95
2019-06-27T18:32:28.484Z,22.86
2019-06-27T18:34:58.765Z,22.85
2019-06-27T18:37:30.000Z,22.75
2019-06-27T18:39:58.304Z,22.72
2019-06-27T18:42:28.452Z,22.68
2019-06-27T18:45:00.660Z,22.57
2019-06-27T18:47:29.399Z,22.46
2019-06-27T18:49:58.191Z,22.41
2019-06-27T18:52:28.322Z,22.33
2019-06-27T18:57:26.413Z,22.12
2019-06-27T18:59:56.989Z,22.05
2019-06-27T19:02:27.282Z,22.07
2019-06-27T19:04:56.162Z,21.92
2019-06-27T19:07:24.983Z,21.77
2019-06-27T19:09:55.498Z,21.70
2019-06-27T19:12:24.152Z,21.58
2019-06-27T19:14:52.991Z,21.41
2019-06-27T19:17:21.701Z,21.39
2019-06-27T19:19:55.863Z,21.21
2019-06-27T19:22:42.696Z,21.17
2019-06-27T19:25:13.253Z,21.12
2019-06-27T19:27:42.549Z,20.98
2019-06-27T19:30:11.363Z,20.88
2019-06-27T19:32:40.196Z,20.76
2019-06-27T19:35:09.115Z,20.64
2019-06-27T19:37:38.229Z,20.50
2019-06-27T19:40:08.386Z,20.55
2019-06-27T19:42:37.052Z,20.40
2019-06-27T19:45:06.779Z,20.37
2019-06-27T19:47:35.495Z,20.34
2019-06-27T19:50:06.094Z,20.30
2019-06-27T19:52:34.808Z,20.12
2019-06-27T19:55:04.148Z,20.08
2019-06-27T19:57:34.327Z,20.02
2019-06-27T20:00:03.939Z,19.98
2019-06-27T20:02:33.482Z,19.91
2019-06-27T20:05:02.645Z,19.83
2019-06-27T20:07:32.033Z,19.74
2019-06-27T20:10:01.365Z,19.67
2019-06-27T20:12:30.403Z,19.62
2019-06-27T20:14:59.957Z,19.60
2019-06-27T20:17:29.136Z,19.55
2019-06-27T20:19:58.589Z,19.58
2019-06-27T20:22:30.660Z,19.47
2019-06-27T20:24:59.627Z,19.40
2019-06-27T20:27:30.505Z,19.38
2019-06-27T20:29:59.589Z,19.35
2019-06-27T20:32:28.829Z,19.21
2019-06-27T20:34:57.768Z,19.11
2019-06-27T20:37:29.735Z,19.10
2019-06-27T20:39:59.506Z,19.04
2019-06-27T20:42:30.204Z,18.97
2019-06-27T20:45:01.192Z,18.87
2019-06-27T20:47:32.304Z,18.79
2019-06-27T20:50:04.069Z,18.77
2019-06-27T20:52:35.911Z,18.77
2019-06-27T20:55:05.426Z,18.74
2019-06-27T20:57:34.146Z,18.73
2019-06-27T21:00:02.976Z,18.65
2019-06-27T21:02:32.000Z,18.55
2019-06-27T21:05:00.749Z,18.53
2019-06-27T21:07:29.591Z,18.48
2019-06-27T21:09:58.323Z,18.44
2019-06-27T21:12:28.699Z,18.41
2019-06-27T21:14:58.064Z,18.40
2019-06-27T21:17:26.961Z,18.28
2019-06-27T21:19:55.972Z,18.21
2019-06-27T21:22:28.204Z,18.19
2019-06-27T21:24:56.929Z,18.09
2019-06-27T21:27:28.421Z,18.08
2019-06-27T21:29:59.862Z,17.99
2019-06-27T21:32:31.830Z,17.95
2019-06-27T21:34:59.132Z,17.87
2019-06-27T21:37:27.868Z,17.79
2019-06-27T21:39:59.986Z,17.83
2019-06-27T21:42:28.734Z,17.75
2019-06-27T21:44:57.779Z,17.64
2019-06-27T21:47:29.376Z,17.57
2019-06-27T21:49:58.168Z,17.55
2019-06-27T21:52:26.855Z,17.52
2019-06-27T21:54:57.034Z,17.41
2019-06-27T21:57:28.835Z,17.41
2019-06-27T21:59:58.501Z,17.31
2019-06-27T22:02:30.310Z,17.21
2019-06-27T22:04:59.030Z,17.14
2019-06-27T22:07:28.158Z,17.06
2019-06-27T22:09:57.031Z,17.09
2019-06-27T22:12:28.742Z,16.93
2019-06-27T22:14:57.676Z,16.93
2019-06-27T22:17:29.566Z,16.82
2019-06-27T22:20:14.031Z,16.88
2019-06-27T22:22:28.782Z,16.81
2019-06-27T22:24:58.145Z,16.85
2019-06-27T22:27:26.813Z,16.95
2019-06-27T22:29:55.584Z,16.93
2019-06-27T22:32:24.333Z,16.90
2019-06-27T22:34:53.108Z,16.89
2019-06-27T22:37:25.074Z,16.88
2019-06-27T22:40:12.514Z,17.03
2019-06-27T22:42:58.918Z,17.03
2019-06-27T22:45:45.132Z,17.05
2019-06-27T22:48:13.954Z,16.92
2019-06-27T22:50:52.402Z,16.91
2019-06-27T22:53:31.871Z,16.97
2019-06-27T22:56:00.600Z,17.05
2019-06-27T22:58:29.559Z,16.95
2019-06-27T23:00:58.282Z,17.05
2019-06-27T23:03:28.482Z,16.98
2019-06-27T23:06:00.127Z,17.17
2019-06-27T23:08:28.909Z,17.16
2019-06-27T23:10:57.924Z,17.06
2019-06-27T23:13:27.056Z,17.16
2019-06-27T23:15:55.767Z,17.16
2019-06-27T23:18:26.693Z,17.20
2019-06-27T23:20:55.350Z,17.21
2019-06-27T23:23:24.187Z,17.34
2019-06-27T23:25:52.841Z,17.28
2019-06-27T23:28:21.546Z,17.21
2019-06-27T23:30:50.289Z,17.22
2019-06-27T23:33:19.086Z,17.12
2019-06-27T23:35:47.902Z,17.13
2019-06-27T23:38:16.716Z,17.11
2019-06-27T23:40:45.428Z,17.11
2019-06-27T23:43:14.242Z,17.07
2019-06-27T23:45:43.472Z,17.09
2019-06-27T23:48:12.701Z,17.10
2019-06-27T23:50:41.264Z,17.01
2019-06-27T23:53:09.950Z,17.05
2019-06-27T23:55:38.618Z,17.04
2019-06-27T23:58:07.505Z,16.96
